Time;durP1;ratioP1;P1;durP2;ratioP2;P2;SDS_P1;SDS_P2;PMS_P1;PMS_P2;Temp;Humidity;BMP_temperature;BMP_pressure;BME280_temperature;BME280_humidity;BME280_pressure;Samples;Min_cycle;Max_cycle;Signal;HPM_P1;HPM_P2
2023/04/06 00:00:47;;;;;;;11.57;8.07;;;7.90;54.10;;;;;;5016354;28;20869;-67
2023/04/06 00:03:13;;;;;;;9.77;8.00;;;7.90;54.40;;;;;;5019687;28;20438;-67
2023/04/06 00:05:38;;;;;;;9.47;7.77;;;7.90;54.30;;;;;;5019431;28;20432;-67
2023/04/06 00:08:04;;;;;;;9.83;7.90;;;7.80;54.80;;;;;;5019853;28;20668;-67
2023/04/06 00:10:30;;;;;;;9.97;8.10;;;7.80;54.80;;;;;;5016983;28;20782;-67
2023/04/06 00:12:57;;;;;;;11.57;8.23;;;7.80;54.90;;;;;;5016377;28;20199;-67
2023/04/06 00:15:22;;;;;;;10.10;8.33;;;7.70;55.40;;;;;;5014912;28;20439;-68
2023/04/06 00:17:48;;;;;;;9.57;8.37;;;7.70;55.40;;;;;;5017821;28;20419;-67
2023/04/06 00:20:15;;;;;;;10.47;7.57;;;7.70;55.50;;;;;;5016994;28;20290;-67
2023/04/06 00:22:41;;;;;;;13.90;7.83;;;7.70;55.60;;;;;;5016361;28;20431;-68
2023/04/06 00:25:07;;;;;;;9.33;8.33;;;7.70;55.60;;;;;;5019422;28;20434;-67
2023/04/06 00:27:32;;;;;;;11.73;8.27;;;7.70;55.60;;;;;;5017354;28;20429;-67
2023/04/06 00:29:58;;;;;;;9.37;7.90;;;7.70;55.60;;;;;;5019722;28;20506;-67
2023/04/06 00:32:23;;;;;;;9.90;7.97;;;7.70;55.70;;;;;;5019632;28;20260;-67
2023/04/06 00:34:52;;;;;;;10.80;7.93;;;7.70;56.00;;;;;;5020066;28;20189;-67
2023/04/06 00:37:18;;;;;;;8.77;6.60;;;7.70;56.00;;;;;;5017891;28;20182;-67
2023/04/06 00:39:44;;;;;;;9.40;7.30;;;7.50;56.00;;;;;;5015834;28;20539;-67
2023/04/06 00:42:13;;;;;;;14.37;7.20;;;7.50;56.30;;;;;;5016787;28;20565;-67
2023/04/06 00:44:40;;;;;;;10.30;7.67;;;7.50;56.30;;;;;;5017385;28;20635;-67
2023/04/06 00:47:07;;;;;;;9.70;7.97;;;7.40;56.10;;;;;;5020434;28;20502;-67
2023/04/06 00:49:33;;;;;;;9.23;8.03;;;7.50;56.20;;;;;;5019557;28;20959;-67
2023/04/06 00:51:59;;;;;;;10.47;7.83;;;7.40;56.30;;;;;;5019228;28;20522;-67
2023/04/06 00:54:25;;;;;;;9.20;7.20;;;7.40;56.40;;;;;;5021136;28;21025;-67
2023/04/06 00:56:51;;;;;;;9.67;8.03;;;7.30;56.30;;;;;;5029483;28;20473;-67
2023/04/06 00:59:17;;;;;;;11.03;8.67;;;7.30;56.50;;;;;;5027273;28;20186;-67
2023/04/06 01:01:42;;;;;;;8.93;8.03;;;7.20;57.70;;;;;;5029854;28;20485;-67
2023/04/06 01:04:08;;;;;;;11.00;7.90;;;7.10;58.10;;;;;;5027275;28;20203;-67
2023/04/06 01:06:34;;;;;;;8.57;7.17;;;7.10;58.50;;;;;;5025353;28;20212;-67
2023/04/06 01:09:00;;;;;;;10.03;7.07;;;6.90;58.80;;;;;;5027194;28;20199;-67
2023/04/06 01:11:26;;;;;;;8.90;6.80;;;6.80;59.00;;;;;;5026043;28;20306;-68
2023/04/06 01:13:52;;;;;;;8.80;7.73;;;6.90;58.80;;;;;;5025424;28;20610;-67
2023/04/06 01:16:18;;;;;;;10.43;7.40;;;6.80;58.90;;;;;;5029547;28;20833;-67
2023/04/06 01:18:43;;;;;;;9.53;7.03;;;6.80;59.00;;;;;;5022646;28;20435;-67
2023/04/06 01:21:15;;;;;;;8.90;7.80;;;6.80;59.00;;;;;;5034197;28;20741;-67
2023/04/06 01:23:46;;;;;;;10.63;7.90;;;6.80;58.90;;;;;;5028003;28;20778;-67
2023/04/06 01:26:13;;;;;;;11.27;7.60;;;6.70;58.80;;;;;;5025498;28;21144;-67
2023/04/06 01:28:39;;;;;;;10.10;7.67;;;6.70;58.90;;;;;;5028148;28;20485;-67
2023/04/06 01:31:07;;;;;;;9.20;8.30;;;6.70;59.00;;;;;;5027981;28;20475;-67
2023/04/06 01:33:33;;;;;;;9.23;7.20;;;6.70;59.10;;;;;;5026697;28;20511;-67
2023/04/06 01:35:59;;;;;;;10.30;7.80;;;6.70;59.20;;;;;;5022829;28;20439;-67
2023/04/06 01:38:26;;;;;;;11.13;7.57;;;6.70;59.40;;;;;;5027007;28;20192;-68
2023/04/06 01:40:52;;;;;;;12.43;7.93;;;6.70;59.50;;;;;;5025194;28;20467;-68
2023/04/06 01:43:17;;;;;;;8.90;7.03;;;6.60;59.70;;;;;;5029648;28;20530;-67
2023/04/06 01:45:43;;;;;;;8.17;6.73;;;6.60;59.90;;;;;;5026761;28;20424;-67
2023/04/06 01:48:08;;;;;;;16.67;7.43;;;6.50;60.20;;;;;;5026962;28;20189;-67
2023/04/06 01:50:34;;;;;;;12.37;8.50;;;6.50;60.20;;;;;;5026946;28;21839;-67
2023/04/06 01:53:00;;;;;;;10.60;7.30;;;6.50;60.50;;;;;;5025001;28;20260;-67
2023/04/06 01:55:25;;;;;;;8.10;7.30;;;6.40;60.70;;;;;;5026953;28;20188;-67
2023/04/06 01:57:51;;;;;;;9.00;6.97;;;6.40;60.90;;;;;;5027457;28;20423;-67
2023/04/06 02:00:17;;;;;;;7.80;6.53;;;6.30;61.10;;;;;;5025279;28;20816;-67
2023/04/06 02:02:42;;;;;;;7.50;6.50;;;6.30;61.10;;;;;;5024527;28;20226;-67
2023/04/06 02:05:08;;;;;;;11.27;6.40;;;6.30;61.40;;;;;;5025941;28;20220;-67
2023/04/06 02:07:34;;;;;;;9.53;7.40;;;6.30;61.60;;;;;;5030070;28;20200;-67
2023/04/06 02:10:00;;;;;;;13.53;6.53;;;6.30;61.60;;;;;;5028045;28;21003;-67
2023/04/06 02:12:25;;;;;;;7.93;6.43;;;6.30;61.30;;;;;;5030343;28;20180;-68
2023/04/06 02:14:51;;;;;;;10.27;7.47;;;6.40;61.10;;;;;;5027198;28;20651;-67
2023/04/06 02:17:17;;;;;;;11.60;8.03;;;6.40;61.00;;;;;;5027087;28;20196;-67
2023/04/06 02:19:42;;;;;;;8.17;6.77;;;6.40;61.10;;;;;;5030437;28;20275;-67
2023/04/06 02:22:09;;;;;;;8.43;7.23;;;6.40;61.20;;;;;;5029731;28;20212;-67
2023/04/06 02:24:35;;;;;;;7.93;7.07;;;6.40;61.60;;;;;;5027156;28;20181;-67
2023/04/06 02:27:01;;;;;;;10.70;7.30;;;6.30;61.90;;;;;;5023159;28;20518;-67
2023/04/06 02:29:26;;;;;;;7.00;6.30;;;6.30;61.90;;;;;;5019503;28;20514;-67
2023/04/06 02:31:52;;;;;;;8.17;7.37;;;6.30;62.00;;;;;;5015485;28;20203;-67
2023/04/06 02:34:18;;;;;;;8.80;7.10;;;6.30;62.00;;;;;;5019789;28;20181;-68
2023/04/06 02:36:45;;;;;;;10.20;7.40;;;6.30;62.20;;;;;;5020725;28;20200;-69
2023/04/06 02:39:11;;;;;;;10.00;7.93;;;6.30;62.40;;;;;;5019027;28;20183;-67
2023/04/06 02:41:36;;;;;;;8.33;6.80;;;6.30;62.80;;;;;;5017666;28;21002;-67
2023/04/06 02:44:03;;;;;;;8.70;7.40;;;6.30;63.20;;;;;;5016653;28;20442;-67
2023/04/06 02:46:29;;;;;;;8.63;7.03;;;6.30;63.30;;;;;;5021350;28;20180;-67
2023/04/06 02:48:54;;;;;;;9.63;7.10;;;6.20;63.00;;;;;;5018951;28;20439;-67
2023/04/06 02:51:20;;;;;;;7.73;7.03;;;6.20;63.50;;;;;;5018347;28;20468;-67
2023/04/06 02:53:46;;;;;;;8.57;7.17;;;6.20;63.50;;;;;;5020871;28;20264;-67
2023/04/06 02:56:12;;;;;;;7.90;6.50;;;6.20;63.50;;;;;;5016198;28;20288;-67
2023/04/06 02:58:37;;;;;;;11.73;7.00;;;6.20;63.10;;;;;;5022050;28;22558;-67
2023/04/06 03:01:03;;;;;;;7.57;6.17;;;6.20;62.90;;;;;;5015081;28;20529;-67
2023/04/06 03:03:29;;;;;;;8.07;6.77;;;6.20;62.80;;;;;;5018520;28;20169;-67
2023/04/06 03:05:58;;;;;;;7.73;6.67;;;6.20;62.80;;;;;;5020277;28;20534;-67
2023/04/06 03:08:24;;;;;;;10.60;7.90;;;6.10;63.10;;;;;;5024605;28;20761;-67
2023/04/06 03:10:50;;;;;;;8.00;6.70;;;6.00;64.20;;;;;;5019585;28;20451;-67
2023/04/06 03:13:16;;;;;;;10.50;7.73;;;5.90;65.00;;;;;;5016259;28;20518;-67
2023/04/06 03:15:41;;;;;;;11.17;6.73;;;5.80;66.50;;;;;;5019304;28;20538;-67
2023/04/06 03:18:07;;;;;;;7.77;6.17;;;5.60;67.00;;;;;;5016874;28;20211;-67
2023/04/06 03:20:32;;;;;;;9.80;6.77;;;5.50;66.90;;;;;;5015278;28;20654;-67
2023/04/06 03:22:58;;;;;;;15.53;7.03;;;5.50;67.30;;;;;;5020671;28;20256;-67
2023/04/06 03:25:24;;;;;;;8.00;6.90;;;5.40;67.90;;;;;;5019194;28;20177;-67
2023/04/06 03:27:49;;;;;;;9.77;6.67;;;5.40;67.90;;;;;;5023151;28;20557;-67
2023/04/06 03:30:18;;;;;;;9.93;6.87;;;5.40;68.10;;;;;;5021782;28;20196;-67
2023/04/06 03:32:44;;;;;;;11.50;6.40;;;5.40;68.30;;;;;;5017410;28;20212;-68
2023/04/06 03:35:10;;;;;;;6.50;5.90;;;5.40;68.50;;;;;;5016460;28;20442;-65
2023/04/06 03:37:36;;;;;;;8.80;6.60;;;5.40;69.60;;;;;;5019047;28;20420;-65
2023/04/06 03:40:02;;;;;;;9.50;6.67;;;5.50;68.50;;;;;;5018299;28;20892;-66
2023/04/06 03:42:28;;;;;;;10.57;6.27;;;5.50;68.40;;;;;;5016310;28;20539;-66
2023/04/06 03:44:54;;;;;;;7.10;6.20;;;5.50;68.60;;;;;;5015777;28;20542;-66
2023/04/06 03:47:19;;;;;;;7.23;6.07;;;5.40;68.80;;;;;;5014855;28;20173;-66
2023/04/06 03:49:45;;;;;;;8.23;6.87;;;5.40;69.20;;;;;;5016680;28;20184;-66
2023/04/06 03:52:11;;;;;;;7.27;6.57;;;5.40;69.00;;;;;;5019753;28;20235;-67
2023/04/06 03:54:36;;;;;;;7.40;6.47;;;5.50;69.20;;;;;;5017321;28;20219;-66
2023/04/06 03:57:02;;;;;;;8.60;6.50;;;5.40;69.80;;;;;;5022220;28;20195;-66
2023/04/06 03:59:28;;;;;;;7.27;5.80;;;5.30;70.50;;;;;;5018302;28;20188;-66
2023/04/06 04:01:54;;;;;;;7.60;6.23;;;5.20;70.60;;;;;;5015354;28;20678;-66
2023/04/06 04:04:19;;;;;;;11.07;7.80;;;5.20;70.90;;;;;;5018862;28;20180;-66
2023/04/06 04:06:45;;;;;;;9.10;6.90;;;5.10;71.50;;;;;;5019976;28;20537;-66
2023/04/06 04:09:10;;;;;;;7.90;7.10;;;5.20;71.40;;;;;;5020287;28;20173;-66
2023/04/06 04:11:36;;;;;;;7.20;6.50;;;5.20;71.10;;;;;;5011079;28;20268;-66
2023/04/06 04:14:02;;;;;;;7.60;6.13;;;5.30;71.10;;;;;;5018299;28;20203;-66
2023/04/06 04:16:27;;;;;;;7.30;6.57;;;5.30;71.20;;;;;;5021831;28;20233;-66
2023/04/06 04:18:53;;;;;;;9.40;6.70;;;5.40;71.10;;;;;;5021850;28;20818;-66
2023/04/06 04:21:19;;;;;;;9.90;6.43;;;5.40;70.80;;;;;;5018794;28;20204;-67
2023/04/06 04:23:44;;;;;;;9.53;7.07;;;5.40;70.60;;;;;;5018597;28;20182;-66
2023/04/06 04:26:10;;;;;;;7.17;6.47;;;5.40;70.60;;;;;;5015055;28;20184;-67
2023/04/06 04:28:36;;;;;;;9.90;7.07;;;5.40;70.90;;;;;;5021119;28;20673;-66
2023/04/06 04:31:01;;;;;;;8.80;7.17;;;5.40;70.80;;;;;;5018278;28;20277;-67
2023/04/06 04:33:27;;;;;;;7.67;6.50;;;5.40;71.50;;;;;;5019167;28;20654;-66
2023/04/06 04:35:53;;;;;;;9.37;7.23;;;5.40;71.60;;;;;;5016575;28;20188;-67
2023/04/06 04:38:18;;;;;;;7.10;6.40;;;5.40;71.90;;;;;;5015631;28;20208;-65
2023/04/06 04:40:44;;;;;;;8.10;6.37;;;5.40;71.90;;;;;;5015574;28;20212;-66
2023/04/06 04:43:09;;;;;;;8.13;6.37;;;5.40;71.40;;;;;;5011950;28;20262;-66
2023/04/06 04:45:35;;;;;;;7.50;6.70;;;5.40;70.70;;;;;;5017830;28;20800;-66
2023/04/06 04:48:01;;;;;;;7.97;6.63;;;5.40;70.70;;;;;;5016884;28;20188;-66
2023/04/06 04:50:26;;;;;;;7.03;6.33;;;5.40;71.00;;;;;;5016722;28;20739;-66
2023/04/06 04:52:52;;;;;;;8.90;7.20;;;5.40;70.80;;;;;;5019430;28;20310;-66
2023/04/06 04:55:18;;;;;;;8.27;6.90;;;5.40;71.10;;;;;;5018823;28;20212;-66
2023/04/06 04:57:43;;;;;;;8.43;6.10;;;5.50;71.10;;;;;;5016566;28;20191;-66
2023/04/06 05:00:09;;;;;;;7.53;6.20;;;5.50;70.80;;;;;;5016157;28;20725;-66
2023/04/06 05:02:35;;;;;;;8.60;7.00;;;5.40;71.00;;;;;;5019227;28;20199;-66
2023/04/06 05:05:01;;;;;;;8.03;6.20;;;5.40;71.10;;;;;;5014871;28;20489;-66
2023/04/06 05:07:27;;;;;;;7.27;6.30;;;5.30;71.00;;;;;;5015802;28;20264;-66
2023/04/06 05:09:52;;;;;;;8.70;6.90;;;5.30;71.20;;;;;;5014964;28;20211;-66
2023/04/06 05:12:19;;;;;;;10.00;6.50;;;5.20;71.60;;;;;;5013320;28;20286;-66
2023/04/06 05:14:45;;;;;;;8.10;6.10;;;5.20;71.90;;;;;;5013353;28;20188;-67
2023/04/06 05:17:11;;;;;;;7.63;6.40;;;5.20;72.00;;;;;;5015733;28;20878;-67
2023/04/06 05:19:36;;;;;;;8.07;6.43;;;5.30;72.00;;;;;;5018275;28;20462;-67
2023/04/06 05:22:02;;;;;;;6.87;6.17;;;5.20;72.00;;;;;;5013739;28;20867;-67
2023/04/06 05:24:28;;;;;;;11.20;7.47;;;5.20;72.20;;;;;;5014546;28;20189;-67
2023/04/06 05:26:54;;;;;;;7.53;6.83;;;5.10;72.50;;;;;;5014982;28;20185;-67
2023/04/06 05:29:20;;;;;;;10.50;7.90;;;5.10;73.10;;;;;;5010872;28;20166;-66
2023/04/06 05:31:46;;;;;;;9.43;7.73;;;4.90;73.50;;;;;;5011718;28;20464;-67
2023/04/06 05:34:12;;;;;;;10.10;7.87;;;4.90;73.90;;;;;;5013557;28;20442;-67
2023/04/06 05:36:38;;;;;;;12.53;7.30;;;4.90;74.00;;;;;;5017435;28;20223;-67
2023/04/06 05:39:04;;;;;;;7.13;6.47;;;4.90;74.40;;;;;;5016108;28;20866;-67
2023/04/06 05:41:30;;;;;;;9.37;7.40;;;4.90;74.50;;;;;;5009006;28;20513;-67
2023/04/06 05:43:55;;;;;;;8.50;7.60;;;5.00;74.20;;;;;;5015325;28;20181;-67
2023/04/06 05:46:21;;;;;;;8.10;7.30;;;4.80;74.50;;;;;;5018486;28;20175;-67
2023/04/06 05:48:46;;;;;;;10.27;7.93;;;4.80;75.00;;;;;;5015376;28;20183;-67
2023/04/06 05:51:12;;;;;;;9.13;8.13;;;4.90;74.60;;;;;;5017141;28;20510;-66
2023/04/06 05:53:38;;;;;;;9.53;8.53;;;4.80;75.00;;;;;;5014794;28;20188;-68
2023/04/06 05:56:04;;;;;;;11.03;8.00;;;4.80;75.30;;;;;;5017316;28;20562;-67
2023/04/06 05:58:29;;;;;;;8.43;7.63;;;4.90;75.20;;;;;;5014255;28;20189;-67
2023/04/06 06:01:00;;;;;;;11.43;7.40;;;5.00;75.30;;;;;;4971055;28;1138662;-67
2023/04/06 06:03:26;;;;;;;8.17;7.30;;;4.80;76.20;;;;;;5020553;28;20234;-67
2023/04/06 06:05:51;;;;;;;11.60;7.80;;;4.70;77.00;;;;;;5015042;28;20489;-67
2023/04/06 06:08:17;;;;;;;11.00;7.07;;;4.70;77.00;;;;;;5017539;28;20442;-67
2023/04/06 06:10:42;;;;;;;7.90;7.10;;;4.70;76.80;;;;;;5015016;28;20289;-67
2023/04/06 06:13:09;;;;;;;9.50;7.07;;;4.70;77.80;;;;;;5016739;28;20302;-67
2023/04/06 06:15:35;;;;;;;8.97;6.40;;;4.80;77.10;;;;;;5019325;28;20180;-67
2023/04/06 06:18:01;;;;;;;7.67;6.87;;;4.70;77.00;;;;;;5013179;28;20428;-67
2023/04/06 06:20:27;;;;;;;10.57;6.90;;;4.80;77.40;;;;;;5014626;28;20463;-67
2023/04/06 06:22:52;;;;;;;11.50;7.60;;;4.70;77.50;;;;;;5016299;28;20928;-68
2023/04/06 06:25:18;;;;;;;10.10;7.23;;;4.80;78.00;;;;;;5010802;28;20592;-67
2023/04/06 06:27:44;;;;;;;7.63;6.80;;;4.90;78.00;;;;;;5015714;28;20209;-67
2023/04/06 06:30:10;;;;;;;7.47;6.70;;;4.90;77.70;;;;;;5009477;28;20211;-67
2023/04/06 06:32:35;;;;;;;8.87;7.70;;;5.00;77.80;;;;;;5013193;28;20197;-66
2023/04/06 06:35:01;;;;;;;11.27;9.17;;;5.00;78.00;;;;;;5018101;28;20185;-67
2023/04/06 06:37:28;;;;;;;8.87;7.97;;;5.00;78.60;;;;;;5017983;28;20204;-67
2023/04/06 06:39:53;;;;;;;9.50;7.87;;;5.10;78.80;;;;;;5012249;28;20491;-67
2023/04/06 06:42:19;;;;;;;9.63;7.30;;;5.10;79.40;;;;;;5014846;28;20181;-67
2023/04/06 06:44:45;;;;;;;13.40;8.13;;;5.10;78.70;;;;;;5013810;28;20177;-66
2023/04/06 06:47:10;;;;;;;8.80;7.70;;;5.20;78.50;;;;;;5016195;28;20235;-68
2023/04/06 06:49:36;;;;;;;9.00;8.10;;;5.30;79.00;;;;;;5011968;28;20440;-68
2023/04/06 06:52:02;;;;;;;11.57;7.57;;;5.40;78.60;;;;;;5015338;28;20189;-68
2023/04/06 06:54:28;;;;;;;8.20;7.10;;;5.40;78.30;;;;;;5012966;28;20173;-69
2023/04/06 06:56:54;;;;;;;9.57;8.03;;;5.50;78.00;;;;;;5014679;28;20707;-68
2023/04/06 06:59:20;;;;;;;8.40;7.60;;;5.50;77.30;;;;;;5017280;28;20590;-68
2023/04/06 07:01:46;;;;;;;11.40;8.20;;;5.50;77.70;;;;;;5011945;28;20487;-68
2023/04/06 07:04:11;;;;;;;8.63;7.57;;;5.50;78.10;;;;;;5017319;28;20208;-68
2023/04/06 07:06:37;;;;;;;8.50;7.13;;;5.50;77.70;;;;;;5014122;28;20184;-68
2023/04/06 07:09:03;;;;;;;8.40;7.60;;;5.60;78.00;;;;;;5014155;28;20195;-68
2023/04/06 07:11:29;;;;;;;10.87;8.90;;;5.80;77.10;;;;;;5011893;28;20797;-67
2023/04/06 07:13:55;;;;;;;8.67;7.87;;;5.90;77.20;;;;;;5012218;28;20504;-68
2023/04/06 07:16:20;;;;;;;10.17;7.67;;;5.80;77.10;;;;;;5020659;28;20932;-68
2023/04/06 07:18:46;;;;;;;9.27;8.37;;;5.90;76.90;;;;;;5014672;28;20177;-68
2023/04/06 07:21:12;;;;;;;13.90;7.67;;;5.80;77.90;;;;;;5018016;28;20281;-67
2023/04/06 07:23:37;;;;;;;11.80;8.53;;;6.00;79.00;;;;;;5014719;28;20185;-67
2023/04/06 07:26:03;;;;;;;9.03;7.67;;;6.00;77.90;;;;;;5021124;28;20192;-68
2023/04/06 07:28:29;;;;;;;10.30;8.07;;;6.10;77.60;;;;;;5022582;28;20186;-68
2023/04/06 07:30:54;;;;;;;11.37;8.50;;;6.30;78.20;;;;;;5019674;28;20273;-68
2023/04/06 07:33:20;;;;;;;8.27;7.13;;;6.30;77.50;;;;;;5017667;28;20857;-68
2023/04/06 07:35:46;;;;;;;10.80;7.97;;;6.30;77.70;;;;;;5021584;28;20187;-68
2023/04/06 07:38:12;;;;;;;8.27;7.47;;;6.60;77.30;;;;;;5016629;28;21069;-68
2023/04/06 07:40:37;;;;;;;8.53;7.63;;;6.60;75.80;;;;;;5017930;28;20208;-68
2023/04/06 07:43:03;;;;;;;9.37;8.40;;;6.70;76.70;;;;;;5010269;28;20195;-68
2023/04/06 07:45:29;;;;;;;11.60;8.13;;;6.80;75.20;;;;;;5016005;28;20301;-68
2023/04/06 07:47:55;;;;;;;8.40;6.80;;;6.90;74.50;;;;;;5020086;28;20485;-68
2023/04/06 07:50:21;;;;;;;8.03;7.23;;;6.90;75.40;;;;;;5017976;28;20658;-68
2023/04/06 07:52:46;;;;;;;7.47;6.50;;;7.10;74.20;;;;;;5017265;28;20258;-65
2023/04/06 07:55:12;;;;;;;12.57;8.13;;;7.20;73.50;;;;;;5017344;28;20196;-67
2023/04/06 07:57:38;;;;;;;9.20;7.63;;;7.20;73.30;;;;;;5021654;28;20215;-67
2023/04/06 08:00:04;;;;;;;9.17;7.73;;;7.20;73.20;;;;;;5014704;28;20220;-67
2023/04/06 08:02:31;;;;;;;9.10;8.20;;;7.30;73.10;;;;;;5016119;28;20284;-67
2023/04/06 08:04:57;;;;;;;8.80;7.90;;;7.40;73.10;;;;;;5002109;28;20424;-67
2023/04/06 08:07:23;;;;;;;9.80;7.20;;;7.50;72.90;;;;;;5010012;28;20466;-67
2023/04/06 08:09:48;;;;;;;11.37;7.93;;;7.50;72.40;;;;;;5014816;28;20279;-67
2023/04/06 08:12:14;;;;;;;13.83;9.13;;;7.50;72.30;;;;;;5019346;28;20585;-67
2023/04/06 08:14:40;;;;;;;8.47;7.57;;;7.60;72.80;;;;;;5015813;28;20194;-66
2023/04/06 08:17:05;;;;;;;10.00;8.40;;;7.50;73.60;;;;;;5015731;28;20535;-67
2023/04/06 08:19:31;;;;;;;10.70;9.07;;;7.60;74.30;;;;;;5019628;28;20188;-66
2023/04/06 08:21:57;;;;;;;10.17;8.97;;;7.70;74.20;;;;;;5016210;28;20192;-66
2023/04/06 08:24:22;;;;;;;13.73;8.87;;;7.80;75.40;;;;;;5015267;28;20189;-67
2023/04/06 08:26:48;;;;;;;10.37;8.33;;;8.00;74.30;;;;;;5019485;28;20181;-67
2023/04/06 08:29:14;;;;;;;9.40;8.30;;;8.10;73.30;;;;;;5016690;28;20196;-67
2023/04/06 08:31:40;;;;;;;8.87;7.97;;;8.10;72.00;;;;;;5016730;28;20300;-67
2023/04/06 08:34:06;;;;;;;13.43;8.70;;;8.10;72.10;;;;;;5017993;28;20561;-67
2023/04/06 08:36:32;;;;;;;10.40;8.80;;;8.10;72.00;;;;;;5015228;28;20185;-67
2023/04/06 08:38:59;;;;;;;9.20;8.20;;;8.00;72.40;;;;;;5014294;28;20465;-67
2023/04/06 08:41:25;;;;;;;13.13;9.30;;;8.10;73.10;;;;;;5013631;28;20732;-67
2023/04/06 08:43:58;;;;;;;10.20;8.43;;;8.20;72.80;;;;;;5009681;28;20974;-67
2023/04/06 08:46:29;;;;;;;10.30;8.60;;;8.40;72.20;;;;;;5015431;28;20446;-67
2023/04/06 08:48:58;;;;;;;8.90;8.00;;;8.50;72.50;;;;;;5017635;28;20447;-67
2023/04/06 08:51:27;;;;;;;9.60;8.07;;;8.60;72.30;;;;;;5016781;28;20550;-67
2023/04/06 08:53:57;;;;;;;9.23;8.00;;;8.70;71.50;;;;;;5013210;28;20455;-67
2023/04/06 08:56:27;;;;;;;8.77;7.83;;;8.70;71.00;;;;;;5021013;28;20902;-67
2023/04/06 08:58:53;;;;;;;8.90;7.60;;;8.70;71.50;;;;;;5018992;28;20443;-67
2023/04/06 09:01:25;;;;;;;9.43;8.50;;;8.90;70.70;;;;;;5018803;28;20501;-67
2023/04/06 09:03:52;;;;;;;9.63;8.40;;;9.00;70.40;;;;;;5015493;28;20876;-67
2023/04/06 09:06:18;;;;;;;9.30;7.57;;;9.00;70.40;;;;;;5017638;28;20437;-67
2023/04/06 09:08:44;;;;;;;11.43;9.20;;;9.10;70.00;;;;;;5010752;28;20944;-67
2023/04/06 09:11:10;;;;;;;9.03;8.10;;;9.00;69.60;;;;;;5012538;28;20516;-67
2023/04/06 09:13:50;;;;;;;9.20;8.00;;;9.20;68.30;;;;;;5017317;28;20204;-67
2023/04/06 09:16:16;;;;;;;10.47;7.97;;;9.30;67.50;;;;;;5019389;28;20434;-67
2023/04/06 09:18:42;;;;;;;8.50;7.63;;;9.40;67.10;;;;;;5017494;28;20506;-67
2023/04/06 09:21:09;;;;;;;8.70;7.80;;;9.60;67.20;;;;;;5016962;28;20475;-66
2023/04/06 09:23:35;;;;;;;11.63;10.40;;;9.60;65.60;;;;;;5018115;28;20435;-67
2023/04/06 09:26:10;;;;;;;10.43;8.33;;;9.60;65.90;;;;;;5018614;28;20522;-67
2023/04/06 09:28:47;;;;;;;9.77;8.87;;;9.80;65.60;;;;;;5019154;28;20449;-67
2023/04/06 09:31:15;;;;;;;9.47;8.20;;;9.90;65.80;;;;;;5015439;28;20438;-67
2023/04/06 09:33:44;;;;;;;11.37;8.80;;;9.90;65.30;;;;;;5015927;28;20451;-67
2023/04/06 09:36:09;;;;;;;10.30;9.03;;;10.00;63.90;;;;;;5017373;28;20477;-67
2023/04/06 09:38:51;;;;;;;11.00;9.27;;;10.20;63.50;;;;;;5014701;28;20538;-67
2023/04/06 09:41:31;;;;;;;9.47;7.83;;;10.30;63.50;;;;;;5019435;28;20847;-67
2023/04/06 09:44:10;;;;;;;10.00;8.47;;;10.40;62.10;;;;;;5012755;28;21269;-67
2023/04/06 09:46:38;;;;;;;11.23;9.80;;;10.50;61.50;;;;;;5015572;28;20493;-67
2023/04/06 09:49:05;;;;;;;11.93;8.60;;;10.60;60.40;;;;;;5014601;28;20470;-67
2023/04/06 09:51:45;;;;;;;11.73;9.67;;;10.80;61.40;;;;;;5016977;28;20694;-67
2023/04/06 09:54:15;;;;;;;11.37;9.50;;;10.90;60.30;;;;;;5013078;28;20419;-67
2023/04/06 09:56:43;;;;;;;10.67;9.63;;;11.00;60.50;;;;;;5012679;28;20456;-67
2023/04/06 09:59:32;;;;;;;10.90;9.77;;;11.10;59.50;;;;;;5018684;28;20439;-67
2023/04/06 10:01:59;;;;;;;10.53;9.17;;;11.20;58.60;;;;;;5004702;28;20454;-67
2023/04/06 10:04:34;;;;;;;10.40;9.23;;;11.20;58.70;;;;;;5013129;28;20442;-67
2023/04/06 10:07:01;;;;;;;10.23;9.03;;;11.20;59.00;;;;;;5015810;28;20410;-67
2023/04/06 10:09:35;;;;;;;13.10;8.60;;;11.30;59.50;;;;;;5018174;28;20431;-67
2023/04/06 10:12:03;;;;;;;12.13;9.37;;;11.40;59.10;;;;;;5016039;28;20427;-67
2023/04/06 10:14:30;;;;;;;11.90;8.83;;;11.50;59.10;;;;;;5010962;28;20443;-67
2023/04/06 10:16:57;;;;;;;10.47;7.80;;;11.60;57.80;;;;;;5007839;28;20823;-67
2023/04/06 10:19:27;;;;;;;11.07;8.97;;;11.70;56.60;;;;;;5014949;28;20436;-67
2023/04/06 10:21:58;;;;;;;9.30;8.27;;;11.80;56.10;;;;;;5016659;28;20431;-66
2023/04/06 10:24:23;;;;;;;10.30;8.53;;;11.80;56.10;;;;;;5015995;28;20499;-66
2023/04/06 10:27:01;;;;;;;10.57;9.57;;;11.90;56.40;;;;;;5015778;28;20519;-67
2023/04/06 10:29:27;;;;;;;12.63;9.10;;;12.00;56.40;;;;;;5012833;28;20232;-67
2023/04/06 10:31:55;;;;;;;12.47;9.90;;;12.10;55.50;;;;;;5008119;28;20443;-66
2023/04/06 10:34:20;;;;;;;10.27;8.73;;;12.10;53.90;;;;;;5013279;28;21120;-67
2023/04/06 10:36:46;;;;;;;10.67;8.67;;;12.00;54.30;;;;;;5010327;28;20435;-67
2023/04/06 10:39:12;;;;;;;13.00;9.43;;;12.10;53.50;;;;;;5017277;28;20313;-66
2023/04/06 10:41:48;;;;;;;9.63;8.63;;;12.10;54.30;;;;;;5012418;28;20271;-67
2023/04/06 10:44:21;;;;;;;9.97;8.97;;;12.20;53.30;;;;;;5013748;28;20299;-67
2023/04/06 10:46:55;;;;;;;10.10;9.00;;;12.30;53.00;;;;;;5011918;28;20494;-66
2023/04/06 10:49:21;;;;;;;12.87;9.20;;;12.20;52.20;;;;;;5010380;28;20436;-66
2023/04/06 10:51:53;;;;;;;12.23;9.00;;;12.20;51.60;;;;;;5014058;28;20482;-66
2023/04/06 10:54:20;;;;;;;9.83;8.63;;;12.30;51.60;;;;;;5015140;28;20439;-68
2023/04/06 10:56:46;;;;;;;10.17;8.70;;;12.40;51.40;;;;;;5018874;28;20460;-67
2023/04/06 10:59:11;;;;;;;8.37;7.53;;;12.40;49.80;;;;;;5013700;28;20936;-67
2023/04/06 11:01:37;;;;;;;9.57;7.57;;;12.60;49.70;;;;;;5011615;28;20227;-67
2023/04/06 11:04:03;;;;;;;12.00;8.50;;;12.80;49.20;;;;;;5014849;28;20177;-67
2023/04/06 11:06:31;;;;;;;9.10;7.97;;;13.00;46.80;;;;;;5013696;28;20173;-67
2023/04/06 11:08:57;;;;;;;9.90;7.20;;;13.20;46.80;;;;;;5019055;28;20894;-67
2023/04/06 11:11:26;;;;;;;8.50;7.70;;;13.30;46.80;;;;;;5018869;28;20459;-67
2023/04/06 11:13:51;;;;;;;10.67;8.60;;;13.50;46.60;;;;;;5014501;28;20443;-67
2023/04/06 11:16:22;;;;;;;11.23;7.93;;;13.90;47.40;;;;;;5016746;28;20557;-67
2023/04/06 11:18:58;;;;;;;9.80;8.30;;;14.10;47.40;;;;;;5017273;28;20224;-66
2023/04/06 11:21:41;;;;;;;17.10;9.07;;;14.30;47.50;;;;;;5016799;28;20545;-66
2023/04/06 11:24:12;;;;;;;9.27;8.20;;;14.50;46.40;;;;;;5017809;28;20432;-66
2023/04/06 11:26:48;;;;;;;10.80;8.37;;;14.60;45.90;;;;;;5020115;28;20419;-67
2023/04/06 11:29:17;;;;;;;13.33;8.67;;;14.60;46.50;;;;;;5014415;28;20453;-67
2023/04/06 11:31:47;;;;;;;9.30;8.40;;;14.90;45.10;;;;;;5020889;28;20469;-67
2023/04/06 11:34:16;;;;;;;9.77;8.60;;;15.10;45.30;;;;;;5018705;28;20430;-67
2023/04/06 11:36:44;;;;;;;10.03;9.03;;;15.30;44.20;;;;;;5013548;28;20455;-67
2023/04/06 11:39:10;;;;;;;9.23;8.30;;;15.20;44.90;;;;;;5013963;28;20546;-66
2023/04/06 11:41:36;;;;;;;11.93;9.20;;;15.50;44.90;;;;;;5015125;28;20637;-67
2023/04/06 11:44:02;;;;;;;9.87;8.03;;;15.70;44.10;;;;;;5015124;28;20431;-67
2023/04/06 11:46:28;;;;;;;10.07;8.27;;;15.80;43.30;;;;;;5013935;28;20498;-68
2023/04/06 11:48:59;;;;;;;10.73;8.27;;;16.00;43.40;;;;;;5010587;28;20440;-67
2023/04/06 11:51:26;;;;;;;9.40;8.40;;;16.20;42.30;;;;;;5017800;28;20270;-67
2023/04/06 11:53:52;;;;;;;10.10;8.70;;;16.50;42.30;;;;;;5014334;28;20725;-67
2023/04/06 11:56:46;;;;;;;9.40;8.40;;;16.80;42.10;;;;;;5019967;28;20490;-67
2023/04/06 11:59:11;;;;;;;10.23;7.93;;;17.30;41.00;;;;;;5010252;28;20594;-67
2023/04/06 12:01:45;;;;;;;9.83;7.13;;;17.60;41.30;;;;;;5011934;28;20471;-67
2023/04/06 12:04:11;;;;;;;10.40;7.60;;;17.70;39.40;;;;;;5015982;28;20688;-67
2023/04/06 12:06:36;;;;;;;9.27;8.37;;;17.50;39.10;;;;;;5016352;28;20423;-67
2023/04/06 12:09:02;;;;;;;8.70;7.60;;;17.60;38.70;;;;;;5013722;28;20621;-67
2023/04/06 12:11:27;;;;;;;7.57;6.80;;;17.80;39.00;;;;;;5013653;28;20204;-67
2023/04/06 12:13:53;;;;;;;9.40;8.40;;;18.00;38.80;;;;;;5014771;28;20509;-67
2023/04/06 12:16:19;;;;;;;9.67;8.67;;;18.20;38.30;;;;;;5007144;28;20181;-67
2023/04/06 12:18:45;;;;;;;8.43;7.63;;;18.30;38.20;;;;;;5012549;28;20781;-67
2023/04/06 12:21:10;;;;;;;13.23;8.87;;;19.00;38.10;;;;;;5016359;28;20216;-67
2023/04/06 12:23:36;;;;;;;9.27;8.23;;;18.90;37.00;;;;;;5015441;28;20605;-67
2023/04/06 12:26:03;;;;;;;10.13;8.53;;;19.70;37.00;;;;;;5016265;28;20221;-67
2023/04/06 12:28:28;;;;;;;9.47;8.57;;;20.50;36.70;;;;;;5013158;28;20248;-67
2023/04/06 12:30:55;;;;;;;10.03;9.00;;;21.10;36.20;;;;;;5013582;28;20455;-67
2023/04/06 12:33:21;;;;;;;10.23;8.30;;;20.60;34.00;;;;;;5011991;28;20282;-67
2023/04/06 12:35:46;;;;;;;8.07;7.27;;;20.90;35.30;;;;;;5013589;28;20964;-67
2023/04/06 12:38:12;;;;;;;11.90;8.60;;;21.70;34.70;;;;;;5014452;28;20572;-67
2023/04/06 12:40:38;;;;;;;9.73;8.83;;;21.80;32.40;;;;;;5015642;28;20262;-68
2023/04/06 12:43:04;;;;;;;10.17;8.30;;;22.00;32.60;;;;;;5013961;28;20253;-68
2023/04/06 12:45:33;;;;;;;9.77;8.67;;;21.60;31.60;;;;;;5017178;28;21021;-68
2023/04/06 12:47:59;;;;;;;8.47;7.50;;;22.00;31.50;;;;;;5012076;28;20246;-67